createdAt,value
2018-10-11T00:02:06.931Z,27.67
2018-10-11T00:04:35.573Z,27.77
2018-10-11T00:07:04.459Z,29.20
2018-10-11T00:09:33.562Z,26.00
2018-10-11T00:12:02.260Z,26.77
2018-10-11T00:14:31.081Z,26.07
2018-10-11T00:16:59.872Z,26.60
2018-10-11T00:19:28.561Z,27.33
2018-10-11T00:21:57.436Z,27.60
2018-10-11T00:24:26.125Z,24.27
2018-10-11T00:26:54.933Z,23.90
2018-10-11T00:29:23.987Z,28.33
2018-10-11T00:31:53.008Z,24.93
2018-10-11T00:34:21.743Z,23.47
2018-10-11T00:36:50.541Z,24.10
2018-10-11T00:39:19.398Z,22.63
2018-10-11T00:41:48.061Z,20.67
2018-10-11T00:44:16.985Z,22.17
2018-10-11T00:46:47.010Z,19.73
2018-10-11T00:49:15.819Z,19.53
2018-10-11T00:51:44.579Z,22.80
2018-10-11T00:54:13.379Z,19.63
2018-10-11T00:56:42.127Z,18.60
2018-10-11T00:59:11.585Z,19.47
2018-10-11T01:01:41.038Z,19.53
2018-10-11T01:04:10.127Z,18.90
2018-10-11T01:06:39.966Z,19.13
2018-10-11T01:09:10.101Z,24.73
2018-10-11T01:11:39.302Z,18.40
2018-10-11T01:14:08.539Z,18.10
2018-10-11T01:16:37.477Z,16.07
2018-10-11T01:19:06.279Z,17.00
2018-10-11T01:21:35.095Z,18.53
2018-10-11T01:24:03.960Z,17.97
2018-10-11T01:26:33.006Z,16.37
2018-10-11T01:29:01.864Z,17.63
2018-10-11T01:31:30.579Z,16.60
2018-10-11T01:33:59.312Z,15.27
2018-10-11T01:36:28.021Z,15.03
2018-10-11T01:38:56.889Z,15.97
2018-10-11T01:41:25.571Z,16.23
2018-10-11T01:43:54.541Z,15.00
2018-10-11T01:46:23.433Z,14.57
2018-10-11T01:48:52.306Z,14.37
2018-10-11T01:51:21.075Z,14.40
2018-10-11T01:53:50.021Z,14.43
2018-10-11T01:56:18.806Z,14.17
2018-10-11T01:58:47.449Z,13.57
2018-10-11T02:01:16.252Z,13.33
2018-10-11T02:03:45.254Z,16.53
2018-10-11T02:06:14.042Z,15.83
2018-10-11T02:08:42.945Z,19.47
2018-10-11T02:11:11.649Z,19.70
2018-10-11T02:13:40.414Z,21.50
2018-10-11T02:16:09.011Z,22.57
2018-10-11T02:18:37.892Z,19.67
2018-10-11T02:21:06.855Z,19.87
2018-10-11T02:23:35.799Z,18.50
2018-10-11T02:26:04.540Z,23.47
2018-10-11T02:28:33.188Z,20.80
2018-10-11T02:31:02.136Z,23.33
2018-10-11T02:33:30.832Z,23.17
2018-10-11T02:35:59.573Z,18.93
2018-10-11T02:38:28.240Z,17.17
2018-10-11T02:40:56.962Z,19.27
2018-10-11T02:43:25.724Z,17.90
2018-10-11T02:45:54.632Z,17.50
2018-10-11T02:48:23.291Z,17.43
2018-10-11T02:50:52.110Z,15.37
2018-10-11T02:53:20.977Z,16.40
2018-10-11T02:55:49.691Z,15.93
2018-10-11T02:58:29.435Z,17.10
2018-10-11T03:00:58.400Z,16.47
2018-10-11T03:03:28.806Z,16.10
2018-10-11T03:06:00.184Z,15.30
2018-10-11T03:08:29.300Z,16.80
2018-10-11T03:10:58.516Z,20.00
2018-10-11T03:13:27.201Z,16.03
2018-10-11T03:15:56.072Z,14.97
2018-10-11T03:18:24.799Z,18.77
2018-10-11T03:20:53.656Z,19.40
2018-10-11T03:23:22.420Z,14.60
2018-10-11T03:25:51.108Z,14.60
2018-10-11T03:28:19.826Z,17.27
2018-10-11T03:30:48.566Z,15.70
2018-10-11T03:33:17.214Z,15.67
2018-10-11T03:35:46.084Z,15.20
2018-10-11T03:38:14.917Z,17.47
2018-10-11T03:40:43.743Z,16.47
2018-10-11T03:43:12.442Z,17.20
2018-10-11T03:45:41.287Z,16.30
2018-10-11T03:48:10.029Z,16.40
2018-10-11T03:50:38.881Z,14.57
2018-10-11T03:53:07.842Z,22.17
2018-10-11T03:55:36.576Z,16.77
2018-10-11T03:58:05.648Z,15.87
2018-10-11T04:00:34.760Z,15.00
2018-10-11T04:03:03.532Z,15.80
2018-10-11T04:05:32.459Z,14.93
2018-10-11T04:08:01.171Z,16.43
2018-10-11T04:10:30.017Z,15.50
2018-10-11T04:12:58.807Z,17.70
2018-10-11T04:15:27.673Z,15.77
2018-10-11T04:17:56.496Z,14.90
2018-10-11T04:20:25.321Z,15.60
2018-10-11T04:22:54.079Z,15.57
2018-10-11T04:25:22.880Z,15.27
2018-10-11T04:27:51.544Z,17.17
2018-10-11T04:30:20.247Z,15.93
2018-10-11T04:32:49.231Z,15.23
2018-10-11T04:35:18.021Z,16.53
2018-10-11T04:37:46.670Z,17.13
2018-10-11T04:40:15.499Z,16.13
2018-10-11T04:42:44.632Z,17.48
2018-10-11T04:45:13.312Z,15.70
2018-10-11T04:47:41.984Z,16.47
2018-10-11T04:50:10.825Z,16.57
2018-10-11T04:52:39.539Z,16.37
2018-10-11T04:55:08.309Z,17.43
2018-10-11T04:57:36.999Z,17.53
2018-10-11T05:00:05.866Z,16.17
2018-10-11T05:02:34.635Z,15.20
2018-10-11T05:05:03.321Z,16.27
2018-10-11T05:07:32.228Z,16.43
2018-10-11T05:10:00.811Z,18.07
2018-10-11T05:12:29.823Z,16.20
2018-10-11T05:14:58.960Z,16.43
2018-10-11T05:17:28.068Z,20.23
2018-10-11T05:19:56.776Z,19.67
2018-10-11T05:22:25.685Z,18.13
2018-10-11T05:24:54.417Z,19.03
2018-10-11T05:27:23.454Z,19.43
2018-10-11T05:29:52.159Z,18.23
2018-10-11T05:33:05.818Z,21.10
2018-10-11T05:35:34.674Z,20.30
2018-10-11T05:38:03.652Z,20.50
2018-10-11T05:40:32.346Z,21.03
2018-10-11T05:43:01.404Z,19.03
2018-10-11T05:45:30.440Z,20.83
2018-10-11T05:47:59.355Z,20.93
2018-10-11T05:50:28.386Z,27.43
2018-10-11T05:52:57.313Z,25.37
2018-10-11T05:55:26.100Z,28.30
2018-10-11T05:57:54.947Z,21.80
2018-10-11T06:00:23.771Z,21.37
2018-10-11T06:02:59.857Z,25.03
2018-10-11T06:05:29.596Z,32.57
2018-10-11T06:07:59.335Z,30.00
2018-10-11T06:10:29.973Z,25.47
2018-10-11T06:12:58.990Z,23.93
2018-10-11T06:15:27.828Z,23.53
2018-10-11T06:17:56.803Z,24.10
2018-10-11T06:20:25.761Z,27.30
2018-10-11T06:22:54.479Z,27.80
2018-10-11T06:25:23.273Z,33.53
2018-10-11T06:27:51.868Z,39.67
2018-10-11T06:30:20.696Z,34.20
2018-10-11T06:32:49.606Z,38.03
2018-10-11T06:35:18.664Z,42.13
2018-10-11T06:37:47.529Z,43.50
2018-10-11T06:40:16.384Z,42.93
2018-10-11T06:42:45.476Z,55.87
2018-10-11T06:45:15.775Z,58.67
2018-10-11T06:47:47.654Z,55.70
2018-10-11T06:50:16.524Z,54.47
2018-10-11T06:52:45.615Z,62.70
2018-10-11T06:55:14.514Z,59.37
2018-10-11T06:57:43.294Z,60.60
2018-10-11T07:00:12.020Z,54.63
2018-10-11T07:02:40.761Z,51.77
2018-10-11T07:05:09.568Z,54.13
2018-10-11T07:07:38.327Z,58.93
2018-10-11T07:10:07.054Z,56.20
2018-10-11T07:12:35.828Z,50.63
2018-10-11T07:15:04.765Z,53.17
2018-10-11T07:17:33.513Z,43.50
2018-10-11T07:20:02.295Z,45.43
2018-10-11T07:22:30.890Z,44.70
2018-10-11T07:24:59.604Z,45.70
2018-10-11T07:27:28.205Z,43.77
2018-10-11T07:29:56.976Z,39.63
2018-10-11T07:32:25.721Z,41.03
2018-10-11T07:34:54.587Z,39.97
2018-10-11T07:37:23.452Z,38.70
2018-10-11T07:39:58.952Z,35.67
2018-10-11T07:42:27.943Z,30.40
2018-10-11T07:44:56.628Z,28.23
2018-10-11T07:47:25.477Z,25.03
2018-10-11T07:49:54.135Z,25.35
2018-10-11T07:52:22.989Z,21.05
2018-10-11T07:54:52.673Z,22.87
2018-10-11T07:57:21.528Z,23.67
2018-10-11T07:59:50.306Z,24.90
2018-10-11T08:02:19.266Z,24.10
2018-10-11T08:04:47.943Z,24.77
2018-10-11T08:07:16.696Z,27.30
2018-10-11T08:09:45.491Z,26.03
2018-10-11T08:12:14.253Z,24.43
2018-10-11T08:14:42.928Z,22.70
2018-10-11T08:17:11.916Z,22.30
2018-10-11T08:19:40.403Z,21.80
2018-10-11T08:22:09.137Z,22.33
2018-10-11T08:24:37.950Z,22.37
2018-10-11T08:27:06.852Z,24.67
2018-10-11T08:29:35.611Z,24.50
2018-10-11T08:32:04.497Z,23.90
2018-10-11T08:34:33.249Z,21.83
2018-10-11T08:37:02.080Z,22.10
2018-10-11T08:39:30.743Z,21.60
2018-10-11T08:41:59.440Z,21.47
2018-10-11T08:44:28.223Z,21.43
2018-10-11T08:46:56.884Z,19.93
2018-10-11T08:49:25.630Z,21.23
2018-10-11T08:51:54.323Z,20.67
2018-10-11T08:54:28.538Z,18.67
2018-10-11T08:56:57.519Z,17.00
2018-10-11T08:59:26.389Z,24.70
2018-10-11T09:01:55.019Z,23.23
2018-10-11T09:04:23.877Z,21.77
2018-10-11T09:06:52.557Z,16.37
2018-10-11T09:09:21.256Z,16.63
2018-10-11T09:11:50.204Z,16.53
2018-10-11T09:14:19.025Z,16.57
2018-10-11T09:16:47.760Z,16.17
2018-10-11T09:19:16.447Z,16.10
2018-10-11T09:21:45.374Z,15.53
2018-10-11T09:24:14.133Z,18.07
2018-10-11T09:26:42.961Z,15.63
2018-10-11T09:29:11.696Z,15.27
2018-10-11T09:31:40.563Z,14.40
2018-10-11T09:34:09.221Z,15.03
2018-10-11T09:36:38.166Z,15.73
2018-10-11T09:39:08.519Z,16.63
2018-10-11T09:41:37.850Z,14.13
2018-10-11T09:44:07.004Z,12.73
2018-10-11T09:46:36.133Z,16.87
2018-10-11T09:49:04.905Z,13.70
2018-10-11T09:51:33.803Z,12.77
2018-10-11T09:54:02.699Z,11.10
2018-10-11T09:57:37.888Z,10.43
2018-10-11T10:00:14.896Z,10.83
2018-10-11T10:02:44.049Z,10.40
2018-10-11T10:05:12.752Z,9.77
2018-10-11T10:07:41.672Z,9.90
2018-10-11T10:10:10.454Z,10.50
2018-10-11T10:12:39.230Z,10.82
2018-10-11T10:15:08.029Z,10.78
2018-10-11T10:17:37.111Z,12.03
2018-10-11T10:20:06.051Z,12.23
2018-10-11T10:22:34.920Z,10.98
2018-10-11T10:25:03.900Z,10.05
2018-10-11T10:27:32.716Z,12.98
2018-10-11T10:30:05.805Z,9.65
2018-10-11T10:32:34.507Z,11.18
2018-10-11T10:35:03.312Z,7.78
2018-10-11T10:37:32.057Z,9.35
2018-10-11T10:40:01.158Z,15.20
2018-10-11T10:42:29.814Z,17.17
2018-10-11T10:44:58.583Z,19.32
2018-10-11T10:47:27.377Z,19.67
2018-10-11T10:49:56.180Z,19.13
2018-10-11T10:52:25.080Z,19.07
2018-10-11T10:54:53.816Z,18.70
2018-10-11T10:57:22.552Z,18.23
2018-10-11T10:59:51.255Z,20.25
2018-10-11T11:02:19.908Z,18.70
2018-10-11T11:04:48.537Z,18.67
2018-10-11T11:07:17.238Z,18.32
2018-10-11T11:09:45.991Z,19.05
2018-10-11T11:12:14.802Z,18.13
2018-10-11T11:14:43.558Z,16.37
2018-10-11T11:17:12.293Z,17.27
2018-10-11T11:19:41.124Z,17.50
2018-10-11T11:22:09.851Z,17.30
2018-10-11T11:24:38.493Z,18.67
2018-10-11T11:27:07.223Z,15.10
2018-10-11T11:29:35.828Z,15.13
2018-10-11T11:32:04.525Z,16.05
2018-10-11T11:34:33.187Z,14.70
2018-10-11T11:37:01.937Z,17.98
2018-10-11T11:39:30.631Z,14.33
2018-10-11T11:41:59.415Z,14.13
2018-10-11T11:44:28.088Z,15.63
2018-10-11T11:46:56.975Z,17.52
2018-10-11T11:49:25.705Z,15.07
2018-10-11T11:51:54.564Z,15.72
2018-10-11T11:54:23.250Z,15.45
2018-10-11T11:56:52.412Z,13.83
2018-10-11T11:59:21.323Z,15.03
2018-10-11T12:01:50.359Z,15.78
2018-10-11T12:04:19.098Z,16.17
2018-10-11T12:06:47.959Z,15.32
2018-10-11T12:09:16.715Z,15.78
2018-10-11T12:11:45.339Z,16.23
2018-10-11T12:14:14.035Z,15.83
2018-10-11T12:16:42.836Z,42.83
2018-10-11T12:19:11.977Z,16.17
2018-10-11T12:21:40.980Z,15.90
2018-10-11T12:24:09.908Z,18.37
2018-10-11T12:26:38.824Z,16.33
2018-10-11T12:29:07.503Z,17.53
2018-10-11T12:31:36.192Z,19.20
2018-10-11T12:34:04.936Z,16.30
2018-10-11T12:36:33.834Z,17.17
2018-10-11T12:39:02.572Z,16.10
2018-10-11T12:41:31.330Z,20.00
2018-10-11T12:44:00.152Z,15.83
2018-10-11T12:46:31.183Z,18.00
2018-10-11T12:48:57.628Z,17.73
2018-10-11T12:51:26.337Z,16.87
2018-10-11T12:53:55.187Z,18.90
2018-10-11T12:56:24.097Z,18.73
2018-10-11T12:58:52.663Z,21.13
2018-10-11T13:01:23.630Z,19.07
2018-10-11T13:03:50.416Z,18.23
2018-10-11T13:06:19.424Z,19.93
2018-10-11T13:08:48.134Z,17.43
2018-10-11T13:11:16.897Z,19.17
2018-10-11T13:13:47.861Z,21.23
2018-10-11T13:16:14.540Z,21.83
2018-10-11T13:18:43.212Z,19.93
2018-10-11T13:21:11.963Z,22.27
2018-10-11T13:23:40.565Z,20.87
2018-10-11T13:26:09.321Z,20.30
2018-10-11T13:28:38.195Z,19.53
2018-10-11T13:31:07.011Z,22.77
2018-10-11T13:33:35.661Z,22.07
2018-10-11T13:36:04.467Z,20.13
2018-10-11T13:38:33.289Z,24.60
2018-10-11T13:41:03.704Z,20.70
2018-10-11T13:43:30.831Z,22.47
2018-10-11T13:46:01.976Z,22.17
2018-10-11T13:48:28.678Z,21.23
2018-10-11T13:50:57.483Z,19.53
2018-10-11T13:53:26.233Z,19.80
2018-10-11T13:55:58.311Z,19.90
2018-10-11T13:58:23.807Z,20.30
2018-10-11T14:00:52.523Z,19.90
2018-10-11T14:03:21.236Z,17.87
2018-10-11T14:05:50.117Z,16.23
2018-10-11T14:08:18.847Z,16.90
2018-10-11T14:10:47.782Z,20.70
2018-10-11T14:13:18.826Z,19.70
2018-10-11T14:15:45.476Z,16.83
2018-10-11T14:18:14.441Z,16.30
2018-10-11T14:20:43.460Z,20.40
2018-10-11T14:23:12.406Z,15.80
2018-10-11T14:25:41.349Z,18.20
2018-10-11T14:28:10.140Z,18.30
2018-10-11T14:30:41.968Z,18.70
2018-10-11T14:33:10.682Z,17.27
2018-10-11T14:35:39.360Z,19.67
2018-10-11T14:38:08.021Z,16.70
2018-10-11T14:40:36.797Z,15.40
2018-10-11T14:43:05.830Z,15.33
2018-10-11T14:45:34.602Z,15.77
2018-10-11T14:48:03.453Z,14.50
2018-10-11T14:50:32.063Z,15.20
2018-10-11T14:53:00.915Z,18.67
2018-10-11T14:55:29.868Z,18.13
2018-10-11T14:57:58.616Z,14.83
2018-10-11T15:00:27.326Z,17.13
2018-10-11T15:02:56.374Z,16.83
2018-10-11T15:05:25.018Z,21.83
2018-10-11T15:07:53.648Z,18.50
2018-10-11T15:10:22.393Z,17.23
2018-10-11T15:12:51.278Z,16.33
2018-10-11T15:15:20.274Z,18.97
2018-10-11T15:17:48.965Z,16.27
2018-10-11T15:20:17.843Z,18.37
2018-10-11T15:22:46.500Z,15.77
2018-10-11T15:25:15.407Z,15.20
2018-10-11T15:27:44.183Z,17.77
2018-10-11T15:30:13.068Z,16.10
2018-10-11T15:32:41.810Z,15.43
2018-10-11T15:35:10.571Z,15.10
2018-10-11T15:37:39.427Z,17.40
2018-10-11T15:40:08.433Z,16.67
2018-10-11T15:42:37.210Z,16.43
2018-10-11T15:45:07.231Z,16.77
2018-10-11T15:47:36.063Z,17.47
2018-10-11T15:50:04.817Z,17.10
2018-10-11T15:52:33.538Z,16.90
2018-10-11T15:55:02.207Z,16.83
2018-10-11T15:57:31.157Z,18.13
2018-10-11T15:59:59.829Z,17.23
2018-10-11T16:02:28.555Z,18.90
2018-10-11T16:04:57.324Z,17.43
2018-10-11T16:07:26.107Z,21.13
2018-10-11T16:09:54.796Z,19.13
2018-10-11T16:12:23.528Z,18.20
2018-10-11T16:14:52.166Z,18.37
2018-10-11T16:17:20.910Z,17.47
2018-10-11T16:19:49.544Z,17.70
2018-10-11T16:22:18.580Z,19.03
2018-10-11T16:24:47.385Z,18.17
2018-10-11T16:27:16.222Z,17.30
2018-10-11T16:29:44.904Z,18.20
2018-10-11T16:32:13.775Z,18.83
2018-10-11T16:34:42.377Z,19.17
2018-10-11T16:37:11.152Z,23.60
2018-10-11T16:39:39.911Z,19.93
2018-10-11T16:42:08.504Z,21.53
2018-10-11T16:44:37.107Z,19.73
2018-10-11T16:47:05.816Z,20.80
2018-10-11T16:49:34.583Z,22.70
2018-10-11T16:52:03.383Z,19.63
2018-10-11T16:54:31.988Z,19.80
2018-10-11T16:57:01.016Z,21.83
2018-10-11T16:59:29.672Z,20.40
2018-10-11T17:01:58.535Z,21.67
2018-10-11T17:04:27.200Z,19.83
2018-10-11T17:06:55.903Z,20.67
2018-10-11T17:09:24.689Z,20.73
2018-10-11T17:11:53.391Z,22.60
2018-10-11T17:14:22.185Z,26.60
2018-10-11T17:16:50.851Z,22.43
2018-10-11T17:19:19.738Z,20.73
2018-10-11T17:21:48.477Z,21.30
2018-10-11T17:24:17.307Z,22.57
2018-10-11T17:26:46.009Z,21.33
2018-10-11T17:29:14.639Z,21.20
2018-10-11T17:31:43.506Z,23.30
2018-10-11T17:34:12.166Z,19.60
2018-10-11T17:36:41.046Z,22.33
2018-10-11T17:39:10.843Z,21.70
2018-10-11T17:41:40.190Z,19.33
2018-10-11T17:44:09.442Z,23.40
2018-10-11T17:46:38.058Z,23.07
2018-10-11T17:49:06.823Z,21.83
2018-10-11T17:51:35.546Z,21.37
2018-10-11T17:54:04.295Z,23.00
2018-10-11T17:56:33.341Z,24.10
2018-10-11T17:59:01.939Z,23.43
2018-10-11T18:01:31.080Z,24.70
2018-10-11T18:03:59.824Z,22.83
2018-10-11T18:06:28.630Z,21.93
2018-10-11T18:08:57.440Z,24.60
2018-10-11T18:11:26.149Z,24.17
2018-10-11T18:13:55.017Z,22.93
2018-10-11T18:16:23.926Z,24.83
2018-10-11T18:18:52.799Z,26.87
2018-10-11T18:21:21.583Z,22.97
2018-10-11T18:23:50.380Z,25.17
2018-10-11T18:26:19.265Z,23.10
2018-10-11T18:28:47.961Z,23.57
2018-10-11T18:31:16.835Z,27.60
2018-10-11T18:33:45.491Z,22.63
2018-10-11T18:36:14.222Z,24.43
2018-10-11T18:38:43.164Z,24.73
2018-10-11T18:41:11.851Z,27.47
2018-10-11T18:43:40.504Z,23.77
2018-10-11T18:46:09.254Z,24.90
2018-10-11T18:48:38.102Z,28.33
2018-10-11T18:51:07.035Z,25.23
2018-10-11T18:53:35.908Z,27.83
2018-10-11T18:56:04.833Z,26.67
2018-10-11T18:58:33.740Z,27.00
2018-10-11T19:01:02.532Z,27.03
2018-10-11T19:03:31.154Z,26.20
2018-10-11T19:05:59.984Z,28.90
2018-10-11T19:08:28.973Z,32.10
2018-10-11T19:10:57.913Z,33.50
2018-10-11T19:13:26.652Z,28.87
2018-10-11T19:15:55.340Z,27.97
2018-10-11T19:18:23.979Z,28.30
2018-10-11T19:20:52.776Z,27.90
2018-10-11T19:23:22.076Z,28.70
2018-10-11T19:25:50.697Z,31.07
2018-10-11T19:28:19.831Z,30.17
2018-10-11T19:30:48.697Z,30.57
2018-10-11T19:33:17.527Z,32.17
2018-10-11T19:35:46.397Z,33.47
2018-10-11T19:38:14.857Z,36.10
2018-10-11T19:40:43.596Z,35.60
2018-10-11T19:43:12.306Z,44.53
2018-10-11T19:45:41.095Z,40.13
2018-10-11T19:48:10.127Z,38.23
2018-10-11T19:50:38.965Z,42.87
2018-10-11T19:53:07.836Z,47.03
2018-10-11T19:55:36.743Z,45.67
2018-10-11T19:58:05.562Z,43.30
2018-10-11T20:00:34.424Z,43.37
2018-10-11T20:03:03.751Z,42.40
2018-10-11T20:05:32.300Z,41.93
2018-10-11T20:08:01.137Z,38.10
2018-10-11T20:10:29.907Z,64.50
2018-10-11T20:12:58.661Z,40.33
2018-10-11T20:15:27.551Z,36.37
2018-10-11T20:17:56.317Z,44.97
2018-10-11T20:20:24.997Z,41.27
2018-10-11T20:22:53.631Z,38.80
2018-10-11T20:25:22.369Z,40.03
2018-10-11T20:27:51.048Z,40.07
2018-10-11T20:30:19.790Z,32.80
2018-10-11T20:32:48.380Z,32.50
2018-10-11T20:35:17.135Z,32.30
2018-10-11T20:37:46.052Z,37.07
2018-10-11T20:40:14.725Z,36.83
2018-10-11T20:42:43.483Z,38.87
2018-10-11T20:45:12.410Z,40.93
2018-10-11T20:47:41.224Z,36.70
2018-10-11T20:50:10.192Z,38.93
2018-10-11T20:52:39.091Z,33.73
2018-10-11T20:55:07.951Z,36.83
2018-10-11T20:57:36.826Z,39.37
2018-10-11T21:00:06.306Z,35.07
2018-10-11T21:02:35.359Z,34.10
2018-10-11T21:05:04.097Z,33.23
2018-10-11T21:07:32.835Z,30.03
2018-10-11T21:10:01.604Z,35.77
2018-10-11T21:12:30.389Z,39.27
2018-10-11T21:14:59.111Z,34.23
2018-10-11T21:17:27.968Z,28.03
2018-10-11T21:19:56.716Z,28.33
2018-10-11T21:22:25.439Z,31.63
2018-10-11T21:24:54.133Z,33.27
2018-10-11T21:27:23.061Z,28.33
2018-10-11T21:29:51.935Z,42.17
2018-10-11T21:32:20.728Z,30.10
2018-10-11T21:34:49.580Z,34.23
2018-10-11T21:37:18.407Z,32.77
2018-10-11T21:39:47.077Z,29.30
2018-10-11T21:42:15.857Z,31.67
2018-10-11T21:44:44.491Z,29.90
2018-10-11T21:47:13.275Z,26.17
2018-10-11T21:49:42.012Z,28.40
2018-10-11T21:52:11.080Z,33.43
2018-10-11T21:54:40.289Z,29.63
2018-10-11T21:57:09.185Z,27.30
2018-10-11T21:59:38.315Z,29.87
2018-10-11T22:02:07.343Z,34.30
2018-10-11T22:04:35.958Z,37.23
2018-10-11T22:07:04.767Z,32.17
2018-10-11T22:09:33.484Z,35.97
2018-10-11T22:12:02.318Z,31.03
2018-10-11T22:14:31.247Z,25.40
2018-10-11T22:16:59.892Z,27.40
2018-10-11T22:19:28.797Z,24.27
2018-10-11T22:21:57.465Z,25.47
2018-10-11T22:24:26.361Z,25.13
2018-10-11T22:26:55.095Z,22.43
2018-10-11T22:29:24.071Z,22.93
2018-10-11T22:31:52.883Z,24.17
2018-10-11T22:34:21.512Z,22.73
2018-10-11T22:36:50.424Z,22.50
2018-10-11T22:39:19.099Z,23.90
2018-10-11T22:41:47.878Z,23.17
2018-10-11T22:44:16.647Z,22.73
2018-10-11T22:46:45.608Z,20.93
2018-10-11T22:49:14.459Z,25.17
2018-10-11T22:51:43.192Z,21.77
2018-10-11T22:54:11.948Z,21.83
2018-10-11T22:56:41.011Z,22.30
2018-10-11T22:59:09.694Z,23.83
2018-10-11T23:01:38.478Z,21.33
2018-10-11T23:04:07.286Z,27.27
2018-10-11T23:06:36.105Z,24.47
2018-10-11T23:09:06.421Z,25.73
2018-10-11T23:11:35.160Z,22.93
2018-10-11T23:14:04.150Z,22.87
2018-10-11T23:16:32.977Z,23.00
2018-10-11T23:19:01.840Z,23.43
2018-10-11T23:21:30.562Z,25.73
2018-10-11T23:23:59.402Z,25.43
2018-10-11T23:26:28.151Z,23.97
2018-10-11T23:28:56.902Z,23.67
2018-10-11T23:31:25.701Z,26.07
2018-10-11T23:33:54.472Z,27.63
2018-10-11T23:36:23.196Z,25.23
2018-10-11T23:38:52.012Z,25.57
2018-10-11T23:41:20.651Z,25.07
2018-10-11T23:43:49.252Z,27.97
2018-10-11T23:46:17.931Z,27.53
2018-10-11T23:48:46.627Z,25.87
2018-10-11T23:51:15.390Z,26.10
2018-10-11T23:53:44.010Z,25.73
2018-10-11T23:56:12.764Z,27.27
2018-10-11T23:58:41.502Z,27.40
